createdAt,value
2019-01-27T00:00:14.259Z,20.81
2019-01-27T00:02:42.942Z,20.83
2019-01-27T00:05:11.070Z,20.81
2019-01-27T00:07:39.737Z,20.82
2019-01-27T00:10:09.076Z,20.84
2019-01-27T00:12:37.854Z,20.81
2019-01-27T00:15:06.257Z,20.80
2019-01-27T00:17:34.943Z,20.76
2019-01-27T00:20:03.143Z,20.74
2019-01-27T00:22:31.864Z,20.78
2019-01-27T00:24:59.776Z,20.83
2019-01-27T00:27:28.687Z,20.81
2019-01-27T00:29:57.380Z,20.78
2019-01-27T00:32:26.114Z,20.81
2019-01-27T00:34:54.341Z,20.83
2019-01-27T00:37:22.974Z,20.85
2019-01-27T00:39:51.175Z,20.85
2019-01-27T00:42:19.884Z,20.86
2019-01-27T00:44:48.611Z,20.88
2019-01-27T00:47:16.507Z,20.88
2019-01-27T00:49:45.451Z,20.88
2019-01-27T00:52:14.244Z,20.88
2019-01-27T00:54:42.382Z,20.93
2019-01-27T00:57:10.978Z,20.92
2019-01-27T00:59:39.626Z,20.89
2019-01-27T01:02:08.395Z,20.90
2019-01-27T01:04:36.348Z,20.88
2019-01-27T01:07:05.019Z,20.88
2019-01-27T01:09:34.308Z,20.87
2019-01-27T01:12:03.033Z,20.75
2019-01-27T01:14:30.918Z,20.65
2019-01-27T01:16:59.666Z,20.51
2019-01-27T01:19:27.494Z,20.51
2019-01-27T01:21:56.074Z,20.44
2019-01-27T01:24:24.742Z,20.39
2019-01-27T01:26:52.820Z,20.36
2019-01-27T01:29:21.411Z,20.32
2019-01-27T01:31:49.297Z,20.27
2019-01-27T01:34:17.898Z,20.22
2019-01-27T01:36:45.798Z,20.17
2019-01-27T01:39:14.371Z,20.12
2019-01-27T01:41:43.057Z,20.06
2019-01-27T01:44:11.023Z,20.03
2019-01-27T01:46:39.625Z,19.99
2019-01-27T01:49:07.529Z,19.96
2019-01-27T01:51:36.127Z,19.93
2019-01-27T01:54:04.870Z,19.91
2019-01-27T01:56:32.746Z,19.87
2019-01-27T01:59:01.402Z,19.84
2019-01-27T02:01:29.273Z,19.81
2019-01-27T02:03:58.198Z,19.79
2019-01-27T02:06:26.862Z,19.77
2019-01-27T02:08:55.502Z,19.74
2019-01-27T02:11:24.147Z,19.70
2019-01-27T02:13:52.101Z,19.69
2019-01-27T02:16:20.774Z,19.66
2019-01-27T02:18:48.842Z,19.64
2019-01-27T02:21:17.410Z,19.63
2019-01-27T02:23:46.078Z,19.59
2019-01-27T02:26:14.708Z,19.60
2019-01-27T02:28:42.568Z,19.59
2019-01-27T02:31:11.218Z,19.58
2019-01-27T02:33:40.143Z,19.57
2019-01-27T02:36:08.814Z,19.56
2019-01-27T02:38:37.687Z,19.55
2019-01-27T02:41:06.375Z,19.53
2019-01-27T02:43:35.016Z,19.53
2019-01-27T02:46:03.950Z,19.51
2019-01-27T02:48:32.897Z,19.51
2019-01-27T02:51:01.593Z,19.50
2019-01-27T02:53:30.277Z,19.49
2019-01-27T02:55:58.980Z,19.48
2019-01-27T02:58:27.662Z,19.48
2019-01-27T03:00:56.329Z,19.47
2019-01-27T03:03:25.017Z,19.46
2019-01-27T03:06:11.197Z,19.46
2019-01-27T03:08:45.790Z,19.45
2019-01-27T03:11:14.464Z,19.43
2019-01-27T03:13:43.095Z,19.44
2019-01-27T03:16:12.678Z,19.42
2019-01-27T03:18:41.343Z,19.41
2019-01-27T03:21:10.085Z,19.42
2019-01-27T03:23:38.000Z,19.40
2019-01-27T03:26:06.747Z,19.40
2019-01-27T03:28:34.847Z,19.40
2019-01-27T03:31:03.522Z,19.39
2019-01-27T03:33:32.273Z,19.38
2019-01-27T03:36:00.176Z,19.39
2019-01-27T03:38:28.933Z,19.38
2019-01-27T03:40:57.581Z,19.37
2019-01-27T03:43:26.489Z,19.37
2019-01-27T03:45:55.201Z,19.36
2019-01-27T03:48:23.068Z,19.36
2019-01-27T03:50:52.002Z,19.35
2019-01-27T03:53:20.721Z,19.35
2019-01-27T03:55:49.469Z,19.35
2019-01-27T03:58:17.359Z,19.34
2019-01-27T04:00:46.097Z,19.34
2019-01-27T04:03:14.240Z,19.32
2019-01-27T04:05:42.829Z,19.34
2019-01-27T04:08:11.554Z,19.34
2019-01-27T04:10:39.413Z,19.36
2019-01-27T04:13:08.088Z,19.38
2019-01-27T04:15:36.019Z,19.41
2019-01-27T04:18:04.714Z,19.42
2019-01-27T04:20:32.553Z,19.44
2019-01-27T04:23:01.126Z,19.45
2019-01-27T04:25:29.852Z,19.48
2019-01-27T04:27:58.005Z,19.48
2019-01-27T04:30:32.164Z,19.50
2019-01-27T04:33:00.882Z,19.51
2019-01-27T04:35:29.556Z,19.52
2019-01-27T04:37:58.242Z,19.53
2019-01-27T04:40:27.035Z,19.57
2019-01-27T04:42:54.896Z,19.59
2019-01-27T04:45:27.379Z,19.58
2019-01-27T04:47:56.255Z,19.58
2019-01-27T04:50:24.929Z,19.57
2019-01-27T04:52:53.579Z,19.56
2019-01-27T04:55:22.257Z,19.53
2019-01-27T04:57:50.146Z,19.53
2019-01-27T05:00:20.841Z,19.52
2019-01-27T05:03:03.737Z,19.50
2019-01-27T05:05:32.441Z,19.49
2019-01-27T05:08:01.563Z,19.47
2019-01-27T05:10:30.799Z,19.47
2019-01-27T05:12:59.459Z,19.44
2019-01-27T05:15:29.212Z,19.43
2019-01-27T05:17:57.895Z,19.41
2019-01-27T05:20:26.662Z,19.40
2019-01-27T05:22:54.622Z,19.40
2019-01-27T05:25:23.307Z,19.37
2019-01-27T05:27:51.186Z,19.37
2019-01-27T05:30:20.364Z,19.36
2019-01-27T05:32:49.645Z,19.35
2019-01-27T05:35:18.336Z,17.92
2019-01-27T05:37:46.997Z,19.34
2019-01-27T05:40:15.696Z,19.34
2019-01-27T05:42:43.551Z,19.35
2019-01-27T05:45:13.754Z,19.34
2019-01-27T05:47:42.629Z,19.34
2019-01-27T05:50:12.455Z,19.35
2019-01-27T05:52:41.196Z,19.35
2019-01-27T05:55:09.542Z,19.36
2019-01-27T05:57:38.195Z,19.37
2019-01-27T06:00:07.923Z,19.38
2019-01-27T06:02:36.807Z,19.39
2019-01-27T06:05:06.004Z,19.42
2019-01-27T06:07:34.722Z,19.45
2019-01-27T06:10:03.653Z,19.49
2019-01-27T06:12:32.529Z,19.51
2019-01-27T06:15:01.188Z,19.55
2019-01-27T06:17:29.928Z,19.58
2019-01-27T06:19:57.947Z,19.59
2019-01-27T06:22:26.632Z,19.59
2019-01-27T06:24:54.503Z,19.60
2019-01-27T06:27:23.076Z,19.60
2019-01-27T06:29:52.012Z,19.57
2019-01-27T06:32:38.725Z,19.57
2019-01-27T06:35:07.917Z,19.60
2019-01-27T06:37:36.562Z,19.59
2019-01-27T06:40:05.425Z,19.59
2019-01-27T06:42:34.125Z,19.59
2019-01-27T06:45:02.856Z,19.59
2019-01-27T06:47:30.777Z,19.59
2019-01-27T06:49:59.957Z,19.59
2019-01-27T06:52:28.637Z,19.60
2019-01-27T06:54:57.296Z,19.59
2019-01-27T06:57:25.917Z,19.60
2019-01-27T06:59:59.056Z,19.60
2019-01-27T07:02:42.070Z,19.61
2019-01-27T07:05:23.861Z,19.62
2019-01-27T07:08:04.484Z,19.62
2019-01-27T07:10:50.829Z,19.61
2019-01-27T07:13:30.952Z,19.62
2019-01-27T07:16:21.875Z,19.61
2019-01-27T07:19:09.641Z,19.62
2019-01-27T07:22:00.655Z,19.59
2019-01-27T07:24:35.518Z,19.59
2019-01-27T07:27:35.386Z,19.60
2019-01-27T07:30:39.153Z,19.60
2019-01-27T07:33:32.946Z,19.59
2019-01-27T07:36:27.048Z,19.60
2019-01-27T07:39:06.962Z,19.60
2019-01-27T07:41:59.145Z,19.60
2019-01-27T07:44:33.851Z,19.60
2019-01-27T07:47:08.158Z,19.60
2019-01-27T07:49:47.024Z,19.60
2019-01-27T07:52:46.852Z,19.62
2019-01-27T07:55:33.575Z,19.64
2019-01-27T07:58:11.748Z,19.73
2019-01-27T08:00:58.680Z,19.83
2019-01-27T08:03:36.300Z,19.83
2019-01-27T08:06:27.213Z,19.80
2019-01-27T08:09:08.643Z,19.77
2019-01-27T08:11:50.921Z,19.77
2019-01-27T08:14:35.914Z,19.90
2019-01-27T08:17:22.524Z,20.00
2019-01-27T08:20:13.321Z,19.98
2019-01-27T08:23:00.007Z,19.95
2019-01-27T08:25:46.107Z,19.90
2019-01-27T08:28:31.577Z,19.86
2019-01-27T08:31:09.816Z,19.84
2019-01-27T08:34:06.629Z,19.84
2019-01-27T08:36:49.101Z,19.84
2019-01-27T08:39:28.750Z,19.83
2019-01-27T08:42:07.564Z,19.84
2019-01-27T08:44:52.170Z,19.84
2019-01-27T08:47:21.339Z,19.93
2019-01-27T08:49:50.245Z,19.98
2019-01-27T08:52:19.062Z,19.99
2019-01-27T08:54:47.561Z,19.98
2019-01-27T08:57:15.575Z,19.99
2019-01-27T08:59:44.423Z,19.98
2019-01-27T09:02:38.364Z,19.99
2019-01-27T09:05:45.373Z,20.03
2019-01-27T09:08:28.229Z,20.11
2019-01-27T09:11:30.842Z,20.07
2019-01-27T09:14:08.979Z,19.98
2019-01-27T09:16:48.785Z,19.92
2019-01-27T09:19:30.292Z,19.93
2019-01-27T09:22:24.361Z,19.98
2019-01-27T09:25:09.492Z,19.96
2019-01-27T09:27:55.752Z,19.97
2019-01-27T09:30:39.375Z,20.02
2019-01-27T09:33:25.911Z,20.03
2019-01-27T09:36:22.344Z,20.07
2019-01-27T09:39:13.216Z,20.11
2019-01-27T09:42:06.764Z,20.13
2019-01-27T09:44:43.630Z,20.17
2019-01-27T09:47:24.232Z,19.68
2019-01-27T09:50:15.219Z,20.21
2019-01-27T09:53:02.901Z,20.21
2019-01-27T09:56:05.872Z,20.20
2019-01-27T09:58:53.627Z,20.20
2019-01-27T10:01:29.467Z,20.18
2019-01-27T10:04:09.212Z,20.18
2019-01-27T10:06:59.441Z,20.15
2019-01-27T10:09:45.598Z,20.17
2019-01-27T10:12:36.375Z,20.18
2019-01-27T10:15:25.386Z,20.17
2019-01-27T10:18:11.738Z,20.15
2019-01-27T10:20:51.059Z,20.15
2019-01-27T10:23:41.979Z,20.15
2019-01-27T10:26:17.732Z,20.27
2019-01-27T10:29:12.345Z,20.38
2019-01-27T10:31:58.853Z,20.41
2019-01-27T10:34:45.324Z,20.43
2019-01-27T10:37:31.859Z,20.28
2019-01-27T10:40:25.650Z,20.21
2019-01-27T10:43:26.168Z,20.17
2019-01-27T10:46:15.354Z,20.13
2019-01-27T10:49:22.065Z,20.10
2019-01-27T10:52:09.716Z,20.09
2019-01-27T10:54:47.318Z,20.06
2019-01-27T10:57:44.129Z,20.02
2019-01-27T11:00:34.008Z,19.98
2019-01-27T11:03:09.399Z,19.96
2019-01-27T11:06:09.365Z,19.97
2019-01-27T11:09:09.398Z,19.97
2019-01-27T11:11:47.661Z,19.99
2019-01-27T11:14:54.375Z,20.08
2019-01-27T11:17:57.342Z,20.11
2019-01-27T11:20:43.654Z,20.10
2019-01-27T11:23:42.941Z,20.05
2019-01-27T11:26:21.967Z,20.01
2019-01-27T11:29:18.982Z,20.00
2019-01-27T11:32:02.043Z,19.97
2019-01-27T11:34:52.308Z,19.96
2019-01-27T11:37:54.984Z,19.94
2019-01-27T11:40:35.886Z,19.92
2019-01-27T11:43:22.075Z,19.91
2019-01-27T11:46:07.595Z,19.93
2019-01-27T11:49:01.374Z,19.89
2019-01-27T11:51:35.571Z,19.87
2019-01-27T11:54:04.363Z,19.84
2019-01-27T11:56:32.254Z,19.81
2019-01-27T11:59:01.056Z,19.80
2019-01-27T12:01:29.080Z,19.77
2019-01-27T12:03:58.046Z,19.75
2019-01-27T12:06:26.866Z,19.73
2019-01-27T12:09:02.476Z,19.71
2019-01-27T12:15:15.704Z,19.67
2019-01-27T12:17:44.774Z,19.64
2019-01-27T12:20:13.678Z,19.61
2019-01-27T12:22:42.802Z,19.60
2019-01-27T12:25:12.446Z,19.58
2019-01-27T12:27:41.214Z,19.57
2019-01-27T12:30:11.229Z,19.56
2019-01-27T12:32:41.126Z,19.55
2019-01-27T12:35:10.037Z,19.53
2019-01-27T12:37:39.293Z,19.53
2019-01-27T12:40:13.638Z,19.53
2019-01-27T12:42:43.520Z,19.55
2019-01-27T12:45:15.721Z,19.57
2019-01-27T12:47:44.643Z,19.59
2019-01-27T12:50:15.192Z,19.59
2019-01-27T12:52:45.920Z,19.60
2019-01-27T12:55:14.906Z,19.66
2019-01-27T12:57:43.580Z,19.69
2019-01-27T13:00:24.648Z,19.74
2019-01-27T13:02:54.763Z,19.77
2019-01-27T13:05:23.438Z,19.81
2019-01-27T13:07:52.184Z,19.81
2019-01-27T13:10:20.384Z,19.82
2019-01-27T13:12:49.245Z,19.84
2019-01-27T13:15:18.268Z,19.84
2019-01-27T13:17:47.112Z,19.86
2019-01-27T13:20:14.982Z,19.88
2019-01-27T13:22:44.161Z,19.87
2019-01-27T13:25:14.500Z,19.89
2019-01-27T13:27:43.468Z,19.91
2019-01-27T13:30:15.188Z,19.91
2019-01-27T13:32:44.053Z,19.93
2019-01-27T13:35:13.701Z,19.99
2019-01-27T13:37:42.996Z,20.15
2019-01-27T13:40:14.855Z,20.25
2019-01-27T13:42:43.807Z,20.38
2019-01-27T13:45:15.584Z,20.49
2019-01-27T13:47:45.156Z,20.58
2019-01-27T13:50:14.087Z,20.63
2019-01-27T13:52:43.519Z,20.68
2019-01-27T13:55:15.403Z,20.72
2019-01-27T13:57:44.218Z,20.77
2019-01-27T14:00:16.626Z,20.69
2019-01-27T14:02:45.561Z,20.48
2019-01-27T14:05:14.347Z,20.37
2019-01-27T14:07:42.299Z,20.32
2019-01-27T14:10:14.123Z,20.26
2019-01-27T14:12:42.999Z,20.32
2019-01-27T14:15:14.553Z,20.45
2019-01-27T14:17:43.488Z,20.36
2019-01-27T14:20:14.156Z,20.27
2019-01-27T14:22:43.157Z,20.23
2019-01-27T14:25:13.844Z,20.19
2019-01-27T14:27:42.795Z,20.15
2019-01-27T14:30:14.383Z,20.14
2019-01-27T14:32:43.420Z,20.21
2019-01-27T14:35:13.110Z,20.31
2019-01-27T14:38:01.426Z,20.36
2019-01-27T14:40:30.153Z,20.43
2019-01-27T14:42:58.863Z,20.53
2019-01-27T14:45:27.655Z,20.58
2019-01-27T14:47:56.526Z,20.57
2019-01-27T14:50:28.017Z,20.12
2019-01-27T14:52:57.210Z,20.42
2019-01-27T14:55:26.477Z,20.37
2019-01-27T14:57:55.229Z,20.30
2019-01-27T15:00:24.656Z,20.23
2019-01-27T15:02:53.375Z,20.19
2019-01-27T15:05:21.422Z,20.15
2019-01-27T15:07:50.118Z,20.15
2019-01-27T15:10:19.589Z,20.29
2019-01-27T15:12:48.291Z,20.42
2019-01-27T15:15:17.065Z,20.51
2019-01-27T15:17:44.928Z,20.58
2019-01-27T15:20:19.676Z,20.63
2019-01-27T15:22:48.350Z,20.67
2019-01-27T15:25:17.007Z,20.71
2019-01-27T15:27:45.422Z,20.69
2019-01-27T15:30:20.908Z,20.70
2019-01-27T15:32:49.604Z,20.49
2019-01-27T15:35:17.455Z,20.47
2019-01-27T15:37:46.218Z,20.54
2019-01-27T15:40:15.212Z,20.46
2019-01-27T15:42:43.997Z,20.35
2019-01-27T15:45:15.464Z,20.29
2019-01-27T15:47:45.429Z,20.24
2019-01-27T15:50:17.674Z,20.23
2019-01-27T15:52:46.573Z,20.37
2019-01-27T15:55:17.971Z,20.52
2019-01-27T15:57:48.116Z,20.63
2019-01-27T16:00:22.620Z,20.70
2019-01-27T16:03:03.771Z,20.75
2019-01-27T16:05:32.597Z,20.80
2019-01-27T16:08:01.296Z,20.79
2019-01-27T16:10:30.669Z,20.85
2019-01-27T16:12:59.590Z,20.84
2019-01-27T16:16:24.035Z,20.81
2019-01-27T16:18:24.698Z,20.86
2019-01-27T16:20:53.550Z,20.82
2019-01-27T16:23:39.875Z,20.70
2019-01-27T16:26:08.629Z,20.63
2019-01-27T16:28:36.771Z,20.58
2019-01-27T16:31:23.020Z,20.54
2019-01-27T16:33:56.288Z,20.51
2019-01-27T16:36:28.171Z,20.55
2019-01-27T16:38:57.101Z,20.60
2019-01-27T16:41:26.512Z,20.67
2019-01-27T16:43:55.725Z,20.60
2019-01-27T16:46:28.264Z,20.55
2019-01-27T16:48:57.057Z,20.53
2019-01-27T16:51:24.927Z,20.50
2019-01-27T16:53:53.616Z,20.49
2019-01-27T16:56:22.521Z,20.47
2019-01-27T16:58:51.221Z,20.47
2019-01-27T17:01:19.613Z,20.47
2019-01-27T17:03:48.197Z,20.47
2019-01-27T17:06:17.305Z,20.46
2019-01-27T17:08:46.125Z,20.47
2019-01-27T17:11:14.851Z,20.41
2019-01-27T17:13:42.795Z,20.36
2019-01-27T17:16:12.386Z,20.45
2019-01-27T17:18:44.614Z,20.53
2019-01-27T17:21:13.490Z,20.56
2019-01-27T17:23:42.235Z,20.61
2019-01-27T17:26:14.333Z,20.66
2019-01-27T17:28:43.172Z,20.70
2019-01-27T17:31:13.537Z,20.75
2019-01-27T17:33:43.192Z,20.77
2019-01-27T17:36:12.155Z,20.80
2019-01-27T17:38:40.981Z,20.70
2019-01-27T17:41:10.208Z,20.62
2019-01-27T17:43:39.018Z,20.54
2019-01-27T17:46:07.039Z,20.50
2019-01-27T17:48:36.263Z,20.46
2019-01-27T17:51:05.129Z,20.43
2019-01-27T17:53:43.346Z,20.39
2019-01-27T17:56:12.047Z,20.37
2019-01-27T17:59:02.089Z,20.36
2019-01-27T18:01:58.969Z,20.32
2019-01-27T18:04:47.501Z,19.75
2019-01-27T18:07:29.960Z,20.24
2019-01-27T18:10:26.505Z,20.23
2019-01-27T18:13:13.286Z,20.25
2019-01-27T18:15:43.027Z,20.36
2019-01-27T18:18:11.825Z,20.47
2019-01-27T18:20:39.855Z,20.54
2019-01-27T18:23:11.327Z,20.57
2019-01-27T18:25:40.017Z,20.60
2019-01-27T18:28:08.874Z,20.63
2019-01-27T18:30:37.920Z,20.74
2019-01-27T18:33:07.100Z,20.78
2019-01-27T18:35:35.991Z,20.84
2019-01-27T18:38:05.775Z,20.91
2019-01-27T18:40:34.872Z,20.95
2019-01-27T18:43:03.546Z,21.04
2019-01-27T18:45:31.530Z,21.04
2019-01-27T18:48:00.322Z,20.88
2019-01-27T18:50:29.125Z,20.80
2019-01-27T18:53:15.644Z,20.73
2019-01-27T18:56:00.301Z,20.68
2019-01-27T18:58:36.915Z,20.62
2019-01-27T19:01:24.249Z,20.62
2019-01-27T19:04:05.739Z,20.60
2019-01-27T19:06:56.873Z,20.58
2019-01-27T19:09:41.619Z,20.55
2019-01-27T19:12:22.670Z,20.56
2019-01-27T19:15:15.294Z,20.67
2019-01-27T19:18:03.075Z,20.76
2019-01-27T19:20:51.979Z,20.68
2019-01-27T19:23:45.285Z,20.58
2019-01-27T19:26:20.472Z,20.53
2019-01-27T19:29:08.377Z,20.46
2019-01-27T19:31:57.588Z,20.46
2019-01-27T19:34:45.326Z,20.43
2019-01-27T19:37:27.486Z,20.41
2019-01-27T19:40:19.148Z,20.39
2019-01-27T19:43:06.899Z,20.38
2019-01-27T19:45:54.601Z,20.34
2019-01-27T19:48:45.401Z,20.32
2019-01-27T19:51:48.874Z,20.30
2019-01-27T19:54:45.647Z,20.29
2019-01-27T19:57:45.177Z,20.28
2019-01-27T20:00:25.998Z,20.28
2019-01-27T20:03:26.125Z,20.26
2019-01-27T20:06:08.663Z,20.27
2019-01-27T20:08:59.456Z,20.21
2019-01-27T20:11:53.367Z,20.21
2019-01-27T20:14:47.432Z,20.24
2019-01-27T20:17:33.665Z,20.20
2019-01-27T20:20:22.358Z,20.22
2019-01-27T20:23:11.661Z,20.22
2019-01-27T20:25:53.122Z,20.20
2019-01-27T20:28:41.148Z,20.20
2019-01-27T20:31:27.260Z,20.18
2019-01-27T20:34:13.775Z,20.19
2019-01-27T20:37:01.549Z,20.17
2019-01-27T20:39:48.105Z,20.17
2019-01-27T20:42:36.452Z,20.17
2019-01-27T20:45:28.526Z,20.15
2019-01-27T20:48:34.473Z,20.16
2019-01-27T20:51:14.180Z,20.21
2019-01-27T20:54:05.009Z,20.25
2019-01-27T20:56:52.707Z,20.30
2019-01-27T20:59:40.678Z,20.42
2019-01-27T21:02:27.641Z,20.49
2019-01-27T21:05:09.916Z,20.59
2019-01-27T21:07:46.960Z,20.59
2019-01-27T21:10:33.428Z,20.61
2019-01-27T21:13:36.987Z,20.67
2019-01-27T21:16:24.759Z,20.71
2019-01-27T21:19:24.993Z,20.71
2019-01-27T21:21:53.703Z,20.70
2019-01-27T21:24:21.612Z,20.76
2019-01-27T21:26:50.282Z,20.81
2019-01-27T21:29:18.184Z,20.87
2019-01-27T21:31:47.168Z,20.94
2019-01-27T21:34:15.884Z,20.98
2019-01-27T21:36:43.801Z,21.02
2019-01-27T21:39:12.664Z,21.06
2019-01-27T21:41:41.580Z,21.14
2019-01-27T21:44:10.346Z,21.14
2019-01-27T21:46:39.177Z,21.19
2019-01-27T21:49:08.133Z,21.22
2019-01-27T21:51:36.860Z,21.22
2019-01-27T21:54:05.610Z,21.32
2019-01-27T21:56:34.615Z,21.35
2019-01-27T21:59:03.306Z,21.37
2019-01-27T22:01:32.028Z,21.36
2019-01-27T22:04:01.049Z,21.33
2019-01-27T22:06:29.785Z,21.33
2019-01-27T22:08:58.485Z,21.35
2019-01-27T22:11:27.259Z,21.33
2019-01-27T22:13:56.041Z,21.32
2019-01-27T22:16:24.761Z,21.28
2019-01-27T22:18:53.746Z,21.22
2019-01-27T22:21:22.466Z,21.20
2019-01-27T22:23:51.190Z,21.22
2019-01-27T22:26:19.949Z,21.17
2019-01-27T22:28:48.655Z,21.19
2019-01-27T22:31:17.586Z,21.22
2019-01-27T22:33:46.303Z,21.19
2019-01-27T22:36:15.021Z,21.17
2019-01-27T22:38:43.767Z,21.17
2019-01-27T22:41:12.473Z,21.11
2019-01-27T22:43:41.183Z,21.10
2019-01-27T22:46:09.884Z,21.10
2019-01-27T22:48:38.971Z,21.12
2019-01-27T22:51:07.704Z,21.04
2019-01-27T22:53:36.420Z,21.09
2019-01-27T22:56:05.200Z,20.98
2019-01-27T22:58:34.068Z,20.89
2019-01-27T23:01:08.927Z,20.84
2019-01-27T23:03:39.668Z,20.80
2019-01-27T23:06:08.354Z,20.77
2019-01-27T23:08:36.255Z,20.74
2019-01-27T23:11:05.196Z,20.70
2019-01-27T23:13:34.105Z,20.69
2019-01-27T23:16:02.806Z,20.64
2019-01-27T23:18:30.736Z,20.59
2019-01-27T23:20:59.388Z,20.55
2019-01-27T23:23:31.212Z,20.51
2019-01-27T23:25:59.911Z,20.47
2019-01-27T23:28:28.611Z,20.44
2019-01-27T23:30:56.501Z,20.40
2019-01-27T23:33:25.134Z,20.39
2019-01-27T23:35:53.397Z,20.36
2019-01-27T23:38:22.036Z,20.34
2019-01-27T23:40:49.930Z,20.31
2019-01-27T23:43:18.573Z,20.29
2019-01-27T23:45:47.264Z,20.28
2019-01-27T23:48:15.302Z,20.24
2019-01-27T23:50:44.081Z,20.24
2019-01-27T23:53:12.958Z,20.23
2019-01-27T23:55:41.659Z,20.20
2019-01-27T23:58:10.350Z,20.19
